Stella Polaris — PEBD — position and weather

sailwx.info

Track history (hours):
 
Tides and Currents Weather Stations Pressure Air Temp Water Temp Dewpoint Dewpoint Depression Visibility Wind Speed Wind Dir Waves Ship Positions

Stella Polaris

Last reported at 2018-May-25 21:27 UTC. Time now 2018-May-27 19:33 UTC.
Position N 49°55' W 003°45'.

Length 117 m; draft 7.4 m.

Type: Ship (hazmat cat A). MMSI: 245911000.

Date/timePositionNaut miles runAvg speedWind from/ knotsBaromVisibWave heightAir tempDewpointWater temp
2018-May-25 21:27N 49°55' W 003°45'914.6
2018-May-25 20:51N 49°57' W 003°31'514.3
2018-May-25 20:29N 49°57' W 003°23'714.0
2018-May-25 19:58N 49°58' W 003°12'613.7
2018-May-25 19:30N 49°59' W 003°02'713.2
2018-May-25 18:59N 50°00' W 002°52'3811.6
2018-May-25 15:42N 50°11' W 001°54'211.7
2018-May-25 15:30N 50°12' W 001°51'612.0
2018-May-25 15:00N 50°14' W 001°42'612.6
2018-May-25 14:30N 50°15' W 001°33'713.4
2018-May-25 14:00N 50°17' W 001°22'3715.3
2018-May-25 11:37N 50°27' W 000°27'215.5
2018-May-25 11:30N 50°27' W 000°25'1415.0
2018-May-25 10:34N 50°31' W 000°03'314.6
2018-May-25 10:22N 50°32' E 000°01'714.5
2018-May-25 09:52N 50°34' E 000°12'514.2
2018-May-25 09:30N 50°35' E 000°20'713.9
2018-May-25 09:00N 50°37' E 000°30'713.2
2018-May-25 08:30N 50°40' E 000°40'612.9
2018-May-25 08:00N 50°44' E 000°48'2812.8
2018-May-25 05:49N 51°01' E 001°22'814.5
2018-May-25 05:18N 51°06' E 001°32'415.3
2018-May-25 05:00N 51°09' E 001°37'815.3
2018-May-25 04:30N 51°14' E 001°46'815.5
2018-May-25 04:00N 51°20' E 001°53'713.6
2018-May-25 03:30N 51°25' E 002°02'713.8
2018-May-25 03:00N 51°22' E 002°12'713.5
2018-May-25 02:30N 51°22' E 002°23'714.1
2018-May-25 01:59N 51°23' E 002°34'713.7
2018-May-25 01:30N 51°22' E 002°45'612.5
2018-May-25 00:59N 51°23' E 002°55'612.3
2018-May-25 00:30N 51°24' E 003°04'712.9
2018-May-24 23:59N 51°25' E 003°15'913.7
2018-May-24 23:18N 51°25' E 003°30'411.0
2018-May-24 22:57N 51°25' E 003°36'613.4
2018-May-24 22:30N 51°22' E 003°44'4 7.6
2018-May-24 22:00N 51°20' E 003°49'0 0.1
2018-May-24 21:30N 51°20' E 003°49'1 1.2
2018-May-24 21:00N 51°19' E 003°49'0 0.1
2018-May-24 20:30N 51°19' E 003°49'1 1.6
2018-May-24 20:01N 51°18' E 003°50'3 6.3
2018-May-24 19:31N 51°15' E 003°50'3 5.9
2018-May-24 19:00N 51°12' E 003°48'0 0.0
2018-May-22 21:10N 51°12' E 003°48'0 0.0
2018-May-22 21:00N 51°12' E 003°48'1 3.0
2018-May-22 20:30N 51°14' E 003°48'3 6.7
2018-May-22 20:00N 51°17' E 003°50'3 5.8
2018-May-22 19:30N 51°20' E 003°49'0 0.5
2018-May-22 19:00N 51°20' E 003°49'1 2.2
2018-May-22 18:30N 51°21' E 003°48'611.1
2018-May-22 18:00N 51°25' E 003°42'4 8.7
2018-May-22 17:30N 51°25' E 003°35'4 8.1
2018-May-22 16:59N 51°28' E 003°30'813.3
2018-May-22 16:22N 51°35' E 003°23'513.3
2018-May-22 15:59N 51°40' E 003°19'510.6
2018-May-22 15:30N 51°45' E 003°19'2 4.1
2018-May-22 15:00N 51°47' E 003°20'0 0.0
2018-May-22 13:57N 51°47' E 003°20'0 0.0
2018-May-22 13:03N 51°47' E 003°20'0 0.0
2018-May-22 12:39N 51°47' E 003°20'0 0.0
2018-May-22 12:18N 51°47' E 003°20'0 0.0
2018-May-22 12:00N 51°47' E 003°20'0 0.0
2018-May-22 11:30N 51°47' E 003°20'0 0.0
2018-May-22 10:51N 51°47' E 003°20'0 0.1
2018-May-22 09:15N 51°47' E 003°20'0 0.0
2018-May-22 08:51N 51°47' E 003°20'0 0.0
2018-May-22 08:27N 51°47' E 003°20'0 0.0
2018-May-22 05:42N 51°47' E 003°20'0 0.1
2018-May-22 05:21N 51°47' E 003°20'0 0.2
2018-May-22 04:51N 51°47' E 003°20'0 0.1
2018-May-22 04:24N 51°47' E 003°20'0 0.0
2018-May-21 22:42N 51°47' E 003°20'0 0.3
2018-May-21 22:12N 51°47' E 003°20'0 0.0
2018-May-21 21:15N 51°47' E 003°20'0 0.0
2018-May-21 19:33N 51°47' E 003°20'0 0.0
2018-May-21 19:12N 51°47' E 003°20'0 0.0
2018-May-21 18:57N 51°47' E 003°20'0 0.1
2018-May-21 17:00N 51°47' E 003°20'0 0.1
2018-May-21 16:30N 51°47' E 003°20'0 0.0
2018-May-21 13:48N 51°47' E 003°20'0 0.0
2018-May-21 12:39N 51°47' E 003°20'0 0.0
2018-May-21 12:30N 51°47' E 003°20'0 0.0
2018-May-21 11:57N 51°47' E 003°20'0 0.0
2018-May-21 11:27N 51°47' E 003°20'0 0.0
2018-May-21 11:00N 51°47' E 003°20'0 0.0
2018-May-21 09:57N 51°47' E 003°20'0 0.1
2018-May-21 09:21N 51°47' E 003°20'0 0.1
2018-May-21 08:57N 51°47' E 003°20'0 0.1
2018-May-21 08:24N 51°47' E 003°20'2 4.7
2018-May-21 08:00N 51°45' E 003°18'611.2
2018-May-21 07:30N 51°40' E 003°20'915.2
2018-May-21 06:55N 51°32' E 003°26'715.1
2018-May-21 06:29N 51°27' E 003°33'3 4.6
2018-May-21 05:46N 51°25' E 003°37'0 0.0
2018-May-21 04:40N 51°25' E 003°37'0 0.0
2018-May-21 04:10N 51°25' E 003°37'0 0.0
2018-May-21 03:43N 51°25' E 003°37'0 0.0
2018-May-21 03:22N 51°25' E 003°37'0 0.0
2018-May-21 02:34N 51°25' E 003°37'0 0.1
2018-May-21 02:22N 51°25' E 003°37'0 0.3
2018-May-21 02:00N 51°25' E 003°37'3 5.3
2018-May-21 01:30N 51°24' E 003°41'612.2
2018-May-21 01:00N 51°20' E 003°49'1 1.5
2018-May-21 00:30N 51°20' E 003°49'2 4.3
2018-May-21 00:00N 51°18' E 003°50'3 6.8
2018-May-20 23:30N 51°14' E 003°49'  
2018-May-18 18:18N 51°12' E 003°48'0 0.0
2018-May-18 17:57N 51°12' E 003°48'0 0.0
2018-May-18 17:27N 51°12' E 003°48'0 0.0
2018-May-18 16:54N 51°12' E 003°48'0 0.0
2018-May-18 16:30N 51°12' E 003°48'0 0.0
2018-May-18 15:30N 51°12' E 003°48'0 0.0
2018-May-18 15:00N 51°12' E 003°48'0 0.3
2018-May-18 14:30N 51°12' E 003°48'1 2.6
2018-May-18 14:00N 51°14' E 003°48'3 6.1
2018-May-18 13:30N 51°16' E 003°50'3 6.5
2018-May-18 13:00N 51°20' E 003°49'0 0.2
2018-May-18 12:30N 51°20' E 003°49'1 1.5
2018-May-18 12:00N 51°20' E 003°49'510.5
2018-May-18 11:30N 51°24' E 003°43'5 9.9
2018-May-18 11:00N 51°25' E 003°35'510.0
2018-May-18 10:29N 51°25' E 003°27'612.8
2018-May-18 10:00N 51°24' E 003°17'611.7
2018-May-18 09:29N 51°24' E 003°07'510.8
2018-May-18 09:00N 51°23' E 002°59'611.4
2018-May-18 08:28N 51°22' E 002°49'5 9.5
2018-May-18 07:59N 51°22' E 002°42'4 8.2
2018-May-18 07:30N 51°21' E 002°36'0 1.0
2018-May-18 07:00N 51°20' E 002°35'0 0.0
2018-May-18 06:30N 51°20' E 002°35'0 0.1
2018-May-18 06:00N 51°20' E 002°35'0 0.2
2018-May-18 05:24N 51°20' E 002°35'0 0.1
2018-May-18 05:00N 51°20' E 002°35'0 0.0
2018-May-18 04:30N 51°20' E 002°35'0 0.0
2018-May-18 03:48N 51°20' E 002°35'0 0.0
2018-May-18 03:30N 51°20' E 002°35'0 0.0
2018-May-18 02:57N 51°20' E 002°36'0 0.0
2018-May-18 02:24N 51°20' E 002°36'0 0.0
2018-May-18 01:51N 51°20' E 002°36'0 0.0
2018-May-18 01:30N 51°20' E 002°36'0 0.1
2018-May-18 00:51N 51°20' E 002°36'0 0.2
2018-May-18 00:30N 51°20' E 002°35'0 0.2
2018-May-18 00:00N 51°20' E 002°35'0 0.1
2018-May-17 23:30N 51°20' E 002°35'0 0.0
2018-May-17 23:00N 51°20' E 002°35'0 0.0
2018-May-17 22:30N 51°20' E 002°35'0 0.0
2018-May-17 22:00N 51°20' E 002°35'0 0.0
2018-May-17 21:18N 51°20' E 002°35'0 0.0
2018-May-17 21:00N 51°20' E 002°35'0 0.0
2018-May-17 20:30N 51°20' E 002°35'0 0.0
2018-May-17 19:45N 51°20' E 002°35'0 0.1
2018-May-17 19:30N 51°20' E 002°35'1 1.1
2018-May-17 18:59N 51°20' E 002°34'5 8.9
2018-May-17 18:27N 51°21' E 002°27'511.6
2018-May-17 18:00N 51°19' E 002°20'612.1
2018-May-17 17:30N 51°16' E 002°11'612.3
2018-May-17 17:00N 51°13' E 002°03'612.6
2018-May-17 16:30N 51°09' E 001°54'7612.9
2018-May-17 10:37N 50°23' E 000°19'214.8
2018-May-17 10:30N 50°23' E 000°16'915.0
2018-May-17 09:52N 50°20' E 000°02'615.0
2018-May-17 09:29N 50°19' W 000°07'715.0
2018-May-17 09:01N 50°17' W 000°18'815.0
2018-May-17 08:30N 50°15' W 000°29'814.8
2018-May-17 08:00N 50°13' W 000°40'714.4
2018-May-17 07:30N 50°11' W 000°51'713.9
2018-May-17 07:00N 50°10' W 001°01'713.0
2018-May-17 06:28N 50°08' W 001°12'612.1
2018-May-17 06:00N 50°07' W 001°20'611.2
2018-May-17 05:28N 50°05' W 001°29'510.3
2018-May-17 05:00N 50°04' W 001°37'5 9.3
2018-May-17 04:30N 50°02' W 001°44'5 8.7
2018-May-17 03:58N 50°01' W 001°51'4 8.3
2018-May-17 03:31N 50°00' W 001°56'4 7.6
2018-May-17 02:56N 49°59' W 002°03'31 9.4
2018-May-16 23:40N 49°51' W 002°49'211.6
2018-May-16 23:28N 49°51' W 002°52'1712.3
2018-May-16 22:04N 49°46' W 003°18'  
Track history (hours):
 
Tides and Currents Weather Stations Pressure Air Temp Water Temp Dewpoint Dewpoint Depression Visibility Wind Speed Wind Dir Waves Ship Positions

Stella Polaris

Last reported at 2018-May-25 21:27 UTC. Time now 2018-May-27 19:33 UTC.
Position N 49°55' W 003°45'.

Length 117 m; draft 7.4 m.

Type: Ship (hazmat cat A). MMSI: 245911000.

Date/timePositionNaut miles runAvg speedWind from/ knotsBaromVisibWave heightAir tempDewpointWater temp
2018-May-25 21:27N 49°55' W 003°45'914.6
2018-May-25 20:51N 49°57' W 003°31'514.3
2018-May-25 20:29N 49°57' W 003°23'714.0
2018-May-25 19:58N 49°58' W 003°12'613.7
2018-May-25 19:30N 49°59' W 003°02'713.2
2018-May-25 18:59N 50°00' W 002°52'3811.6
2018-May-25 15:42N 50°11' W 001°54'211.7
2018-May-25 15:30N 50°12' W 001°51'612.0
2018-May-25 15:00N 50°14' W 001°42'612.6
2018-May-25 14:30N 50°15' W 001°33'713.4
2018-May-25 14:00N 50°17' W 001°22'3715.3
2018-May-25 11:37N 50°27' W 000°27'215.5
2018-May-25 11:30N 50°27' W 000°25'1415.0
2018-May-25 10:34N 50°31' W 000°03'314.6
2018-May-25 10:22N 50°32' E 000°01'714.5
2018-May-25 09:52N 50°34' E 000°12'514.2
2018-May-25 09:30N 50°35' E 000°20'713.9
2018-May-25 09:00N 50°37' E 000°30'713.2
2018-May-25 08:30N 50°40' E 000°40'612.9
2018-May-25 08:00N 50°44' E 000°48'2812.8
2018-May-25 05:49N 51°01' E 001°22'814.5
2018-May-25 05:18N 51°06' E 001°32'415.3
2018-May-25 05:00N 51°09' E 001°37'815.3
2018-May-25 04:30N 51°14' E 001°46'815.5
2018-May-25 04:00N 51°20' E 001°53'713.6
2018-May-25 03:30N 51°25' E 002°02'713.8
2018-May-25 03:00N 51°22' E 002°12'713.5
2018-May-25 02:30N 51°22' E 002°23'714.1
2018-May-25 01:59N 51°23' E 002°34'713.7
2018-May-25 01:30N 51°22' E 002°45'612.5
2018-May-25 00:59N 51°23' E 002°55'612.3
2018-May-25 00:30N 51°24' E 003°04'712.9
2018-May-24 23:59N 51°25' E 003°15'913.7
2018-May-24 23:18N 51°25' E 003°30'411.0
2018-May-24 22:57N 51°25' E 003°36'613.4
2018-May-24 22:30N 51°22' E 003°44'4 7.6
2018-May-24 22:00N 51°20' E 003°49'0 0.1
2018-May-24 21:30N 51°20' E 003°49'1 1.2
2018-May-24 21:00N 51°19' E 003°49'0 0.1
2018-May-24 20:30N 51°19' E 003°49'1 1.6
2018-May-24 20:01N 51°18' E 003°50'3 6.3
2018-May-24 19:31N 51°15' E 003°50'3 5.9
2018-May-24 19:00N 51°12' E 003°48'0 0.0
2018-May-22 21:10N 51°12' E 003°48'0 0.0
2018-May-22 21:00N 51°12' E 003°48'1 3.0
2018-May-22 20:30N 51°14' E 003°48'3 6.7
2018-May-22 20:00N 51°17' E 003°50'3 5.8
2018-May-22 19:30N 51°20' E 003°49'0 0.5
2018-May-22 19:00N 51°20' E 003°49'1 2.2
2018-May-22 18:30N 51°21' E 003°48'611.1
2018-May-22 18:00N 51°25' E 003°42'4 8.7
2018-May-22 17:30N 51°25' E 003°35'4 8.1
2018-May-22 16:59N 51°28' E 003°30'813.3
2018-May-22 16:22N 51°35' E 003°23'513.3
2018-May-22 15:59N 51°40' E 003°19'510.6
2018-May-22 15:30N 51°45' E 003°19'2 4.1
2018-May-22 15:00N 51°47' E 003°20'0 0.0
2018-May-22 13:57N 51°47' E 003°20'0 0.0
2018-May-22 13:03N 51°47' E 003°20'0 0.0
2018-May-22 12:39N 51°47' E 003°20'0 0.0
2018-May-22 12:18N 51°47' E 003°20'0 0.0
2018-May-22 12:00N 51°47' E 003°20'0 0.0
2018-May-22 11:30N 51°47' E 003°20'0 0.0
2018-May-22 10:51N 51°47' E 003°20'0 0.1
2018-May-22 09:15N 51°47' E 003°20'0 0.0
2018-May-22 08:51N 51°47' E 003°20'0 0.0
2018-May-22 08:27N 51°47' E 003°20'0 0.0
2018-May-22 05:42N 51°47' E 003°20'0 0.1
2018-May-22 05:21N 51°47' E 003°20'0 0.2
2018-May-22 04:51N 51°47' E 003°20'0 0.1
2018-May-22 04:24N 51°47' E 003°20'0 0.0
2018-May-21 22:42N 51°47' E 003°20'0 0.3
2018-May-21 22:12N 51°47' E 003°20'0 0.0
2018-May-21 21:15N 51°47' E 003°20'0 0.0
2018-May-21 19:33N 51°47' E 003°20'0 0.0
2018-May-21 19:12N 51°47' E 003°20'0 0.0
2018-May-21 18:57N 51°47' E 003°20'0 0.1
2018-May-21 17:00N 51°47' E 003°20'0 0.1
2018-May-21 16:30N 51°47' E 003°20'0 0.0
2018-May-21 13:48N 51°47' E 003°20'0 0.0
2018-May-21 12:39N 51°47' E 003°20'0 0.0
2018-May-21 12:30N 51°47' E 003°20'0 0.0
2018-May-21 11:57N 51°47' E 003°20'0 0.0
2018-May-21 11:27N 51°47' E 003°20'0 0.0
2018-May-21 11:00N 51°47' E 003°20'0 0.0
2018-May-21 09:57N 51°47' E 003°20'0 0.1
2018-May-21 09:21N 51°47' E 003°20'0 0.1
2018-May-21 08:57N 51°47' E 003°20'0 0.1
2018-May-21 08:24N 51°47' E 003°20'2 4.7
2018-May-21 08:00N 51°45' E 003°18'611.2
2018-May-21 07:30N 51°40' E 003°20'915.2
2018-May-21 06:55N 51°32' E 003°26'715.1
2018-May-21 06:29N 51°27' E 003°33'3 4.6
2018-May-21 05:46N 51°25' E 003°37'0 0.0
2018-May-21 04:40N 51°25' E 003°37'0 0.0
2018-May-21 04:10N 51°25' E 003°37'0 0.0
2018-May-21 03:43N 51°25' E 003°37'0 0.0
2018-May-21 03:22N 51°25' E 003°37'0 0.0
2018-May-21 02:34N 51°25' E 003°37'0 0.1
2018-May-21 02:22N 51°25' E 003°37'0 0.3
2018-May-21 02:00N 51°25' E 003°37'3 5.3
2018-May-21 01:30N 51°24' E 003°41'612.2
2018-May-21 01:00N 51°20' E 003°49'1 1.5
2018-May-21 00:30N 51°20' E 003°49'2 4.3
2018-May-21 00:00N 51°18' E 003°50'3 6.8
2018-May-20 23:30N 51°14' E 003°49'  
2018-May-18 18:18N 51°12' E 003°48'0 0.0
2018-May-18 17:57N 51°12' E 003°48'0 0.0
2018-May-18 17:27N 51°12' E 003°48'0 0.0
2018-May-18 16:54N 51°12' E 003°48'0 0.0
2018-May-18 16:30N 51°12' E 003°48'0 0.0
2018-May-18 15:30N 51°12' E 003°48'0 0.0
2018-May-18 15:00N 51°12' E 003°48'0 0.3
2018-May-18 14:30N 51°12' E 003°48'1 2.6
2018-May-18 14:00N 51°14' E 003°48'3 6.1
2018-May-18 13:30N 51°16' E 003°50'3 6.5
2018-May-18 13:00N 51°20' E 003°49'0 0.2
2018-May-18 12:30N 51°20' E 003°49'1 1.5
2018-May-18 12:00N 51°20' E 003°49'510.5
2018-May-18 11:30N 51°24' E 003°43'5 9.9
2018-May-18 11:00N 51°25' E 003°35'510.0
2018-May-18 10:29N 51°25' E 003°27'612.8
2018-May-18 10:00N 51°24' E 003°17'611.7
2018-May-18 09:29N 51°24' E 003°07'510.8
2018-May-18 09:00N 51°23' E 002°59'611.4
2018-May-18 08:28N 51°22' E 002°49'5 9.5
2018-May-18 07:59N 51°22' E 002°42'4 8.2
2018-May-18 07:30N 51°21' E 002°36'0 1.0
2018-May-18 07:00N 51°20' E 002°35'0 0.0
2018-May-18 06:30N 51°20' E 002°35'0 0.1
2018-May-18 06:00N 51°20' E 002°35'0 0.2
2018-May-18 05:24N 51°20' E 002°35'0 0.1
2018-May-18 05:00N 51°20' E 002°35'0 0.0
2018-May-18 04:30N 51°20' E 002°35'0 0.0
2018-May-18 03:48N 51°20' E 002°35'0 0.0
2018-May-18 03:30N 51°20' E 002°35'0 0.0
2018-May-18 02:57N 51°20' E 002°36'0 0.0
2018-May-18 02:24N 51°20' E 002°36'0 0.0
2018-May-18 01:51N 51°20' E 002°36'0 0.0
2018-May-18 01:30N 51°20' E 002°36'0 0.1
2018-May-18 00:51N 51°20' E 002°36'0 0.2
2018-May-18 00:30N 51°20' E 002°35'0 0.2
2018-May-18 00:00N 51°20' E 002°35'0 0.1
2018-May-17 23:30N 51°20' E 002°35'0 0.0
2018-May-17 23:00N 51°20' E 002°35'0 0.0
2018-May-17 22:30N 51°20' E 002°35'0 0.0
2018-May-17 22:00N 51°20' E 002°35'0 0.0
2018-May-17 21:18N 51°20' E 002°35'0 0.0
2018-May-17 21:00N 51°20' E 002°35'0 0.0
2018-May-17 20:30N 51°20' E 002°35'0 0.0
2018-May-17 19:45N 51°20' E 002°35'0 0.1
2018-May-17 19:30N 51°20' E 002°35'1 1.1
2018-May-17 18:59N 51°20' E 002°34'5 8.9
2018-May-17 18:27N 51°21' E 002°27'511.6
2018-May-17 18:00N 51°19' E 002°20'612.1
2018-May-17 17:30N 51°16' E 002°11'612.3
2018-May-17 17:00N 51°13' E 002°03'612.6
2018-May-17 16:30N 51°09' E 001°54'7612.9
2018-May-17 10:37N 50°23' E 000°19'214.8
2018-May-17 10:30N 50°23' E 000°16'915.0
2018-May-17 09:52N 50°20' E 000°02'615.0
2018-May-17 09:29N 50°19' W 000°07'715.0
2018-May-17 09:01N 50°17' W 000°18'815.0
2018-May-17 08:30N 50°15' W 000°29'814.8
2018-May-17 08:00N 50°13' W 000°40'714.4
2018-May-17 07:30N 50°11' W 000°51'713.9
2018-May-17 07:00N 50°10' W 001°01'713.0
2018-May-17 06:28N 50°08' W 001°12'612.1
2018-May-17 06:00N 50°07' W 001°20'611.2
2018-May-17 05:28N 50°05' W 001°29'510.3
2018-May-17 05:00N 50°04' W 001°37'5 9.3
2018-May-17 04:30N 50°02' W 001°44'5 8.7
2018-May-17 03:58N 50°01' W 001°51'4 8.3
2018-May-17 03:31N 50°00' W 001°56'4 7.6
2018-May-17 02:56N 49°59' W 002°03'31 9.4
2018-May-16 23:40N 49°51' W 002°49'211.6
2018-May-16 23:28N 49°51' W 002°52'1712.3
2018-May-16 22:04N 49°46' W 003°18'  

Dump ship's entire track history